LFBA 301030Z AUTO 10007KT 040V140 CAVOK 25/17 Q1014

ElémentsDécodage
LFBA Station météo située sur l'aérodrome de AGEN La Garenne
301030Z émis le 30 du mois à 10h30 UTC
AUTO Bulletin édité par un automate
10007KT vent du 100°, 07 noeuds
040V140 vent de direction variable entre 040° et 140°
CAVOK Ceiling And Visibility OK
- Visibilité de 10 Km ou plus
- Pas de nuage au-dessous de 1500m ou au-dessous de l'altitude minimale du secteur la plus élevée (si>1500m) et absence de CB
- pas de temps présent significatif
25/17 température 25°C, point de rosée 17°C
 soit une humidité relative de 61%
Q1014 la pression au niveau de la mer (QNH) est de 1014 hPa